Deerfield, New York
Current Conditions -  °F | °C
As of 7:53 AM on Tuesday 21 Oct 2014 (Local Time) from KRME Reporting Station
Overcast Overcast  
Wind Chill: 43°   Ceiling: 4100
Heat Index: 46°   Visibility: 8mi
Dew Point: 45°   Wind: 6mph
Humidity: 96%   Direction: 150°SSE
Pressure: 29.88"   Gusts: NA
Location:  43.1393°N, 75.1577°W
Report Text: KRME 211153Z 15005KT 8SM OVC041 08/07 A2988 RMK AO2 RAE28 SLP119 P0001 60002 70003 T00780072 10089 20072 53003
Loading
Personal Weather Stations






























Interactive Weather Map
Tropical Storm Tracking
New forecast layout! Learn more

10-Day Weather Forecast

Advertisements
Track Severe Weather on mobile